sensor_id;sensor_type;location;lat;lon;timestamp;P1;durP1;ratioP1;P2;durP2;ratioP2
27925;SDS011;15267;47.838;12.128;2022-09-20T00:01:29;1.25;;;0.75;;
27925;SDS011;15267;47.838;12.128;2022-09-20T00:03:49;2.13;;;1.17;;
27925;SDS011;15267;47.838;12.128;2022-09-20T00:06:16;3.53;;;1.23;;
27925;SDS011;15267;47.838;12.128;2022-09-20T00:08:43;1.70;;;0.80;;
27925;SDS011;15267;47.838;12.128;2022-09-20T00:11:13;2.95;;;1.13;;
27925;SDS011;15267;47.838;12.128;2022-09-20T00:13:40;1.48;;;1.00;;
27925;SDS011;15267;47.838;12.128;2022-09-20T00:16:13;2.08;;;0.80;;
27925;SDS011;15267;47.838;12.128;2022-09-20T00:21:06;2.00;;;0.90;;
27925;SDS011;15267;47.838;12.128;2022-09-20T00:23:32;2.92;;;1.00;;
27925;SDS011;15267;47.838;12.128;2022-09-20T00:25:59;1.40;;;0.90;;
27925;SDS011;15267;47.838;12.128;2022-09-20T00:28:26;1.60;;;0.95;;
27925;SDS011;15267;47.838;12.128;2022-09-20T00:30:53;2.78;;;1.08;;
27925;SDS011;15267;47.838;12.128;2022-09-20T00:33:19;1.80;;;1.00;;
27925;SDS011;15267;47.838;12.128;2022-09-20T00:35:45;1.85;;;1.15;;
27925;SDS011;15267;47.838;12.128;2022-09-20T00:38:12;2.65;;;1.10;;
27925;SDS011;15267;47.838;12.128;2022-09-20T00:40:42;4.63;;;1.35;;
27925;SDS011;15267;47.838;12.128;2022-09-20T00:43:14;2.65;;;1.38;;
27925;SDS011;15267;47.838;12.128;2022-09-20T00:45:40;3.65;;;1.20;;
27925;SDS011;15267;47.838;12.128;2022-09-20T00:48:12;4.18;;;1.50;;
27925;SDS011;15267;47.838;12.128;2022-09-20T00:50:41;2.28;;;1.30;;
27925;SDS011;15267;47.838;12.128;2022-09-20T00:53:13;2.55;;;1.42;;
27925;SDS011;15267;47.838;12.128;2022-09-20T00:55:40;1.70;;;1.40;;
27925;SDS011;15267;47.838;12.128;2022-09-20T00:58:09;2.72;;;1.40;;
27925;SDS011;15267;47.838;12.128;2022-09-20T01:00:36;3.10;;;1.30;;
27925;SDS011;15267;47.838;12.128;2022-09-20T01:03:03;2.45;;;1.27;;
27925;SDS011;15267;47.838;12.128;2022-09-20T01:05:31;2.45;;;1.58;;
27925;SDS011;15267;47.838;12.128;2022-09-20T01:07:57;2.90;;;1.75;;
27925;SDS011;15267;47.838;12.128;2022-09-20T01:10:23;3.63;;;1.58;;
27925;SDS011;15267;47.838;12.128;2022-09-20T01:12:50;3.50;;;1.65;;
27925;SDS011;15267;47.838;12.128;2022-09-20T01:15:16;4.30;;;1.60;;
27925;SDS011;15267;47.838;12.128;2022-09-20T01:17:44;3.45;;;1.52;;
27925;SDS011;15267;47.838;12.128;2022-09-20T01:22:43;2.30;;;1.38;;
27925;SDS011;15267;47.838;12.128;2022-09-20T01:30:06;2.80;;;1.40;;
27925;SDS011;15267;47.838;12.128;2022-09-20T01:32:35;4.60;;;1.60;;
27925;SDS011;15267;47.838;12.128;2022-09-20T01:35:06;3.70;;;1.50;;
27925;SDS011;15267;47.838;12.128;2022-09-20T01:37:40;4.15;;;1.80;;
27925;SDS011;15267;47.838;12.128;2022-09-20T01:42:38;2.53;;;1.65;;
27925;SDS011;15267;47.838;12.128;2022-09-20T01:47:53;4.03;;;1.75;;
27925;SDS011;15267;47.838;12.128;2022-09-20T01:58:27;3.95;;;1.30;;
27925;SDS011;15267;47.838;12.128;2022-09-20T02:17:05;3.63;;;1.33;;
27925;SDS011;15267;47.838;12.128;2022-09-20T02:19:48;1.92;;;1.00;;
27925;SDS011;15267;47.838;12.128;2022-09-20T02:25:00;3.42;;;1.20;;
27925;SDS011;15267;47.838;12.128;2022-09-20T02:32:49;4.38;;;1.10;;
27925;SDS011;15267;47.838;12.128;2022-09-20T02:38:04;4.22;;;1.40;;
27925;SDS011;15267;47.838;12.128;2022-09-20T02:43:39;2.45;;;0.90;;
27925;SDS011;15267;47.838;12.128;2022-09-20T02:46:09;2.83;;;0.95;;
27925;SDS011;15267;47.838;12.128;2022-09-20T02:48:43;1.67;;;0.90;;
27925;SDS011;15267;47.838;12.128;2022-09-20T02:53:46;3.17;;;1.02;;
27925;SDS011;15267;47.838;12.128;2022-09-20T03:04:16;3.83;;;0.90;;
27925;SDS011;15267;47.838;12.128;2022-09-20T03:09:33;4.15;;;1.42;;
27925;SDS011;15267;47.838;12.128;2022-09-20T03:12:02;3.85;;;1.33;;
27925;SDS011;15267;47.838;12.128;2022-09-20T03:14:36;2.13;;;1.38;;
27925;SDS011;15267;47.838;12.128;2022-09-20T03:17:04;4.70;;;1.23;;
27925;SDS011;15267;47.838;12.128;2022-09-20T03:22:17;3.28;;;1.60;;
27925;SDS011;15267;47.838;12.128;2022-09-20T03:27:22;4.82;;;1.58;;
27925;SDS011;15267;47.838;12.128;2022-09-20T03:32:39;2.88;;;1.75;;
27925;SDS011;15267;47.838;12.128;2022-09-20T03:40:40;5.15;;;1.90;;
27925;SDS011;15267;47.838;12.128;2022-09-20T03:43:15;4.88;;;2.00;;
27925;SDS011;15267;47.838;12.128;2022-09-20T03:45:52;4.95;;;2.42;;
27925;SDS011;15267;47.838;12.128;2022-09-20T04:08:36;5.35;;;1.88;;
27925;SDS011;15267;47.838;12.128;2022-09-20T04:11:08;3.47;;;2.10;;
27925;SDS011;15267;47.838;12.128;2022-09-20T04:13:41;3.88;;;1.88;;
27925;SDS011;15267;47.838;12.128;2022-09-20T04:16:22;2.63;;;1.73;;
27925;SDS011;15267;47.838;12.128;2022-09-20T04:18:55;2.80;;;1.70;;
27925;SDS011;15267;47.838;12.128;2022-09-20T04:21:27;2.90;;;1.80;;
27925;SDS011;15267;47.838;12.128;2022-09-20T04:23:59;3.17;;;2.00;;
27925;SDS011;15267;47.838;12.128;2022-09-20T04:26:27;4.25;;;2.10;;
27925;SDS011;15267;47.838;12.128;2022-09-20T04:33:58;5.03;;;1.98;;
27925;SDS011;15267;47.838;12.128;2022-09-20T04:36:52;3.38;;;1.90;;
27925;SDS011;15267;47.838;12.128;2022-09-20T04:45:09;6.00;;;2.03;;
27925;SDS011;15267;47.838;12.128;2022-09-20T04:55:37;5.13;;;2.38;;
27925;SDS011;15267;47.838;12.128;2022-09-20T05:06:11;3.35;;;1.95;;
27925;SDS011;15267;47.838;12.128;2022-09-20T05:21:51;3.88;;;2.20;;
27925;SDS011;15267;47.838;12.128;2022-09-20T05:29:47;4.10;;;2.03;;
27925;SDS011;15267;47.838;12.128;2022-09-20T05:32:21;2.45;;;1.80;;
27925;SDS011;15267;47.838;12.128;2022-09-20T05:37:31;3.72;;;1.60;;
27925;SDS011;15267;47.838;12.128;2022-09-20T05:40:04;10.20;;;2.17;;
27925;SDS011;15267;47.838;12.128;2022-09-20T05:42:41;11.25;;;2.22;;
27925;SDS011;15267;47.838;12.128;2022-09-20T05:47:56;5.75;;;1.95;;
27925;SDS011;15267;47.838;12.128;2022-09-20T05:53:22;5.47;;;1.98;;
27925;SDS011;15267;47.838;12.128;2022-09-20T05:56:02;3.97;;;1.95;;
27925;SDS011;15267;47.838;12.128;2022-09-20T05:58:36;3.13;;;2.00;;
27925;SDS011;15267;47.838;12.128;2022-09-20T06:06:28;7.43;;;3.60;;
27925;SDS011;15267;47.838;12.128;2022-09-20T06:09:05;5.05;;;3.55;;
27925;SDS011;15267;47.838;12.128;2022-09-20T06:14:18;6.22;;;3.70;;
27925;SDS011;15267;47.838;12.128;2022-09-20T06:16:54;5.97;;;3.63;;
27925;SDS011;15267;47.838;12.128;2022-09-20T06:22:21;7.90;;;4.15;;
27925;SDS011;15267;47.838;12.128;2022-09-20T06:25:00;6.75;;;3.60;;
27925;SDS011;15267;47.838;12.128;2022-09-20T06:27:29;5.97;;;3.67;;
27925;SDS011;15267;47.838;12.128;2022-09-20T06:29:58;6.72;;;4.00;;
27925;SDS011;15267;47.838;12.128;2022-09-20T06:32:24;5.03;;;3.08;;
27925;SDS011;15267;47.838;12.128;2022-09-20T06:34:51;12.43;;;3.65;;
27925;SDS011;15267;47.838;12.128;2022-09-20T06:37:38;4.80;;;2.97;;
27925;SDS011;15267;47.838;12.128;2022-09-20T06:43:12;4.50;;;3.00;;
27925;SDS011;15267;47.838;12.128;2022-09-20T06:45:39;6.63;;;3.83;;
27925;SDS011;15267;47.838;12.128;2022-09-20T06:48:05;5.13;;;3.50;;
27925;SDS011;15267;47.838;12.128;2022-09-20T06:50:33;6.63;;;3.25;;
27925;SDS011;15267;47.838;12.128;2022-09-20T06:53:00;6.07;;;3.40;;
27925;SDS011;15267;47.838;12.128;2022-09-20T06:55:28;8.13;;;4.20;;
27925;SDS011;15267;47.838;12.128;2022-09-20T06:57:55;9.93;;;4.47;;
27925;SDS011;15267;47.838;12.128;2022-09-20T07:00:21;4.97;;;2.92;;
27925;SDS011;15267;47.838;12.128;2022-09-20T07:02:47;5.03;;;2.58;;
27925;SDS011;15267;47.838;12.128;2022-09-20T07:05:13;4.72;;;2.25;;
27925;SDS011;15267;47.838;12.128;2022-09-20T07:07:39;4.43;;;2.30;;
27925;SDS011;15267;47.838;12.128;2022-09-20T07:10:07;5.85;;;2.38;;
27925;SDS011;15267;47.838;12.128;2022-09-20T07:12:34;6.60;;;2.20;;
27925;SDS011;15267;47.838;12.128;2022-09-20T07:15:00;7.65;;;2.60;;
27925;SDS011;15267;47.838;12.128;2022-09-20T07:17:26;6.05;;;2.95;;
27925;SDS011;15267;47.838;12.128;2022-09-20T07:19:52;6.30;;;2.70;;
27925;SDS011;15267;47.838;12.128;2022-09-20T07:22:20;4.65;;;2.63;;
27925;SDS011;15267;47.838;12.128;2022-09-20T07:24:46;5.57;;;3.03;;
27925;SDS011;15267;47.838;12.128;2022-09-20T07:27:12;13.40;;;8.95;;
27925;SDS011;15267;47.838;12.128;2022-09-20T07:29:38;11.75;;;6.80;;
27925;SDS011;15267;47.838;12.128;2022-09-20T07:32:05;10.75;;;5.13;;
27925;SDS011;15267;47.838;12.128;2022-09-20T07:34:31;5.07;;;2.53;;
27925;SDS011;15267;47.838;12.128;2022-09-20T07:36:57;5.28;;;2.00;;
27925;SDS011;15267;47.838;12.128;2022-09-20T07:39:24;4.32;;;1.83;;
27925;SDS011;15267;47.838;12.128;2022-09-20T07:41:50;4.25;;;1.75;;
27925;SDS011;15267;47.838;12.128;2022-09-20T07:44:16;5.68;;;2.25;;
27925;SDS011;15267;47.838;12.128;2022-09-20T07:47:03;4.97;;;1.90;;
27925;SDS011;15267;47.838;12.128;2022-09-20T07:49:30;4.55;;;1.77;;
27925;SDS011;15267;47.838;12.128;2022-09-20T07:51:56;3.75;;;1.70;;
27925;SDS011;15267;47.838;12.128;2022-09-20T07:54:22;3.25;;;1.77;;
27925;SDS011;15267;47.838;12.128;2022-09-20T07:56:48;4.93;;;1.70;;
27925;SDS011;15267;47.838;12.128;2022-09-20T07:59:14;4.20;;;1.77;;
27925;SDS011;15267;47.838;12.128;2022-09-20T08:01:41;3.83;;;1.67;;
27925;SDS011;15267;47.838;12.128;2022-09-20T08:04:07;4.20;;;1.88;;
27925;SDS011;15267;47.838;12.128;2022-09-20T08:06:38;6.50;;;2.10;;
27925;SDS011;15267;47.838;12.128;2022-09-20T08:09:04;4.93;;;2.08;;
27925;SDS011;15267;47.838;12.128;2022-09-20T08:11:30;5.57;;;1.80;;
27925;SDS011;15267;47.838;12.128;2022-09-20T08:13:57;2.83;;;1.55;;
27925;SDS011;15267;47.838;12.128;2022-09-20T08:16:24;6.60;;;1.75;;
27925;SDS011;15267;47.838;12.128;2022-09-20T08:18:51;3.05;;;1.80;;
27925;SDS011;15267;47.838;12.128;2022-09-20T08:21:19;8.27;;;2.10;;
27925;SDS011;15267;47.838;12.128;2022-09-20T08:23:45;8.73;;;2.03;;
27925;SDS011;15267;47.838;12.128;2022-09-20T08:26:13;6.10;;;1.98;;
27925;SDS011;15267;47.838;12.128;2022-09-20T08:28:40;6.80;;;1.90;;
27925;SDS011;15267;47.838;12.128;2022-09-20T08:31:07;29.02;;;17.35;;
27925;SDS011;15267;47.838;12.128;2022-09-20T08:33:34;9.23;;;2.92;;
27925;SDS011;15267;47.838;12.128;2022-09-20T08:36:02;9.98;;;2.80;;
27925;SDS011;15267;47.838;12.128;2022-09-20T08:38:29;7.75;;;2.95;;
27925;SDS011;15267;47.838;12.128;2022-09-20T08:40:57;5.15;;;2.03;;
27925;SDS011;15267;47.838;12.128;2022-09-20T08:43:24;5.82;;;1.70;;
27925;SDS011;15267;47.838;12.128;2022-09-20T08:45:53;7.45;;;2.00;;
27925;SDS011;15267;47.838;12.128;2022-09-20T08:48:19;8.23;;;2.00;;
27925;SDS011;15267;47.838;12.128;2022-09-20T08:50:47;7.57;;;2.08;;
27925;SDS011;15267;47.838;12.128;2022-09-20T08:53:14;8.90;;;1.92;;
27925;SDS011;15267;47.838;12.128;2022-09-20T08:55:40;5.90;;;2.10;;
27925;SDS011;15267;47.838;12.128;2022-09-20T08:58:08;7.20;;;2.20;;
27925;SDS011;15267;47.838;12.128;2022-09-20T09:00:36;7.80;;;2.47;;
27925;SDS011;15267;47.838;12.128;2022-09-20T09:03:09;8.32;;;2.20;;
27925;SDS011;15267;47.838;12.128;2022-09-20T09:05:48;6.57;;;2.50;;
27925;SDS011;15267;47.838;12.128;2022-09-20T09:08:16;6.43;;;2.38;;
27925;SDS011;15267;47.838;12.128;2022-09-20T09:10:44;4.57;;;2.17;;
27925;SDS011;15267;47.838;12.128;2022-09-20T09:13:16;7.68;;;2.60;;
27925;SDS011;15267;47.838;12.128;2022-09-20T09:15:43;6.37;;;2.33;;
27925;SDS011;15267;47.838;12.128;2022-09-20T09:18:10;8.13;;;2.30;;
27925;SDS011;15267;47.838;12.128;2022-09-20T09:20:39;7.15;;;2.58;;
27925;SDS011;15267;47.838;12.128;2022-09-20T09:23:18;4.97;;;2.25;;
27925;SDS011;15267;47.838;12.128;2022-09-20T09:25:49;3.35;;;1.77;;
27925;SDS011;15267;47.838;12.128;2022-09-20T09:28:15;6.75;;;1.80;;
27925;SDS011;15267;47.838;12.128;2022-09-20T09:30:45;5.03;;;1.52;;
27925;SDS011;15267;47.838;12.128;2022-09-20T09:35:40;4.22;;;1.50;;
27925;SDS011;15267;47.838;12.128;2022-09-20T09:38:14;4.57;;;1.20;;
27925;SDS011;15267;47.838;12.128;2022-09-20T09:40:48;4.68;;;1.42;;
27925;SDS011;15267;47.838;12.128;2022-09-20T09:43:18;3.92;;;1.70;;
27925;SDS011;15267;47.838;12.128;2022-09-20T09:45:47;6.03;;;1.80;;
27925;SDS011;15267;47.838;12.128;2022-09-20T09:48:23;4.25;;;1.75;;
27925;SDS011;15267;47.838;12.128;2022-09-20T09:51:00;4.88;;;2.20;;
27925;SDS011;15267;47.838;12.128;2022-09-20T09:53:31;5.25;;;2.40;;
27925;SDS011;15267;47.838;12.128;2022-09-20T09:58:31;6.00;;;3.58;;
27925;SDS011;15267;47.838;12.128;2022-09-20T10:01:00;8.43;;;5.25;;
27925;SDS011;15267;47.838;12.128;2022-09-20T10:03:47;4.90;;;2.92;;
27925;SDS011;15267;47.838;12.128;2022-09-20T10:06:18;7.15;;;4.30;;
27925;SDS011;15267;47.838;12.128;2022-09-20T10:16:10;3.83;;;2.35;;
27925;SDS011;15267;47.838;12.128;2022-09-20T10:18:51;6.57;;;2.58;;
27925;SDS011;15267;47.838;12.128;2022-09-20T10:29:26;4.63;;;3.05;;
27925;SDS011;15267;47.838;12.128;2022-09-20T10:36:50;4.65;;;2.47;;
27925;SDS011;15267;47.838;12.128;2022-09-20T10:39:33;5.43;;;2.40;;
27925;SDS011;15267;47.838;12.128;2022-09-20T10:47:22;4.00;;;2.50;;
27925;SDS011;15267;47.838;12.128;2022-09-20T11:10:24;6.25;;;2.95;;
27925;SDS011;15267;47.838;12.128;2022-09-20T11:13:16;8.75;;;3.00;;
27925;SDS011;15267;47.838;12.128;2022-09-20T11:15:40;7.72;;;3.30;;
27925;SDS011;15267;47.838;12.128;2022-09-20T11:26:06;9.20;;;3.38;;
27925;SDS011;15267;47.838;12.128;2022-09-20T11:28:53;5.20;;;3.45;;
27925;SDS011;15267;47.838;12.128;2022-09-20T11:41:49;5.95;;;3.10;;
27925;SDS011;15267;47.838;12.128;2022-09-20T11:44:17;7.38;;;3.10;;
27925;SDS011;15267;47.838;12.128;2022-09-20T11:46:45;7.00;;;3.60;;
27925;SDS011;15267;47.838;12.128;2022-09-20T11:49:14;4.65;;;3.45;;
27925;SDS011;15267;47.838;12.128;2022-09-20T11:51:48;6.85;;;3.75;;
27925;SDS011;15267;47.838;12.128;2022-09-20T11:54:33;5.30;;;3.72;;
27925;SDS011;15267;47.838;12.128;2022-09-20T11:57:01;7.50;;;3.72;;
27925;SDS011;15267;47.838;12.128;2022-09-20T11:59:28;5.85;;;3.58;;
27925;SDS011;15267;47.838;12.128;2022-09-20T12:01:55;6.70;;;2.90;;
27925;SDS011;15267;47.838;12.128;2022-09-20T12:04:30;5.88;;;2.50;;
27925;SDS011;15267;47.838;12.128;2022-09-20T12:07:14;6.93;;;2.33;;
27925;SDS011;15267;47.838;12.128;2022-09-20T12:09:41;5.43;;;2.10;;
27925;SDS011;15267;47.838;12.128;2022-09-20T12:12:12;7.22;;;2.30;;
27925;SDS011;15267;47.838;12.128;2022-09-20T12:14:39;6.90;;;2.88;;
27925;SDS011;15267;47.838;12.128;2022-09-20T12:17:09;5.72;;;2.28;;
27925;SDS011;15267;47.838;12.128;2022-09-20T12:19:52;4.45;;;2.10;;
27925;SDS011;15267;47.838;12.128;2022-09-20T12:22:27;6.35;;;2.08;;
27925;SDS011;15267;47.838;12.128;2022-09-20T12:34:56;5.55;;;2.17;;
27925;SDS011;15267;47.838;12.128;2022-09-20T12:37:22;11.63;;;2.10;;
27925;SDS011;15267;47.838;12.128;2022-09-20T12:39:50;4.72;;;1.52;;
27925;SDS011;15267;47.838;12.128;2022-09-20T12:44:46;3.13;;;1.40;;
27925;SDS011;15267;47.838;12.128;2022-09-20T12:47:23;9.45;;;1.63;;
27925;SDS011;15267;47.838;12.128;2022-09-20T12:49:50;7.13;;;1.48;;
27925;SDS011;15267;47.838;12.128;2022-09-20T12:57:52;4.15;;;1.27;;
27925;SDS011;15267;47.838;12.128;2022-09-20T13:00:28;6.38;;;1.50;;
27925;SDS011;15267;47.838;12.128;2022-09-20T13:02:56;5.20;;;1.30;;
27925;SDS011;15267;47.838;12.128;2022-09-20T13:05:30;4.15;;;1.45;;
27925;SDS011;15267;47.838;12.128;2022-09-20T13:07:56;5.15;;;1.08;;
27925;SDS011;15267;47.838;12.128;2022-09-20T13:10:28;2.83;;;0.93;;
27925;SDS011;15267;47.838;12.128;2022-09-20T13:12:57;7.43;;;1.83;;
27925;SDS011;15267;47.838;12.128;2022-09-20T13:15:24;5.22;;;1.10;;
27925;SDS011;15267;47.838;12.128;2022-09-20T13:17:50;5.90;;;1.30;;
27925;SDS011;15267;47.838;12.128;2022-09-20T13:20:21;6.63;;;1.20;;
27925;SDS011;15267;47.838;12.128;2022-09-20T13:22:48;6.03;;;2.70;;
27925;SDS011;15267;47.838;12.128;2022-09-20T13:25:15;4.65;;;1.92;;
27925;SDS011;15267;47.838;12.128;2022-09-20T13:27:43;4.28;;;1.20;;
27925;SDS011;15267;47.838;12.128;2022-09-20T13:30:32;5.65;;;1.13;;
27925;SDS011;15267;47.838;12.128;2022-09-20T13:33:20;7.50;;;1.20;;
27925;SDS011;15267;47.838;12.128;2022-09-20T13:35:46;3.75;;;1.27;;
27925;SDS011;15267;47.838;12.128;2022-09-20T13:38:14;4.70;;;1.67;;
27925;SDS011;15267;47.838;12.128;2022-09-20T13:40:46;6.38;;;2.83;;
27925;SDS011;15267;47.838;12.128;2022-09-20T13:45:59;4.05;;;1.67;;
27925;SDS011;15267;47.838;12.128;2022-09-20T13:48:25;4.07;;;1.70;;
27925;SDS011;15267;47.838;12.128;2022-09-20T13:50:52;5.07;;;1.75;;
27925;SDS011;15267;47.838;12.128;2022-09-20T13:53:20;8.30;;;1.55;;
27925;SDS011;15267;47.838;12.128;2022-09-20T13:55:46;6.88;;;1.73;;
27925;SDS011;15267;47.838;12.128;2022-09-20T13:58:16;4.72;;;1.45;;
27925;SDS011;15267;47.838;12.128;2022-09-20T14:00:44;3.90;;;1.40;;
27925;SDS011;15267;47.838;12.128;2022-09-20T14:03:13;7.18;;;1.40;;
27925;SDS011;15267;47.838;12.128;2022-09-20T14:05:43;8.48;;;1.80;;
27925;SDS011;15267;47.838;12.128;2022-09-20T14:08:11;7.03;;;1.60;;
27925;SDS011;15267;47.838;12.128;2022-09-20T14:10:37;3.33;;;1.40;;
27925;SDS011;15267;47.838;12.128;2022-09-20T14:13:10;7.68;;;2.40;;
27925;SDS011;15267;47.838;12.128;2022-09-20T14:15:42;7.25;;;2.10;;
27925;SDS011;15267;47.838;12.128;2022-09-20T14:18:13;6.18;;;2.47;;
27925;SDS011;15267;47.838;12.128;2022-09-20T14:20:40;8.18;;;2.28;;
27925;SDS011;15267;47.838;12.128;2022-09-20T14:23:17;9.80;;;2.50;;
27925;SDS011;15267;47.838;12.128;2022-09-20T14:26:03;4.80;;;1.65;;
27925;SDS011;15267;47.838;12.128;2022-09-20T14:28:29;6.05;;;1.90;;
27925;SDS011;15267;47.838;12.128;2022-09-20T14:31:02;3.58;;;1.55;;
27925;SDS011;15267;47.838;12.128;2022-09-20T14:33:30;6.30;;;1.60;;
27925;SDS011;15267;47.838;12.128;2022-09-20T14:35:56;4.10;;;1.50;;
27925;SDS011;15267;47.838;12.128;2022-09-20T14:38:23;4.57;;;1.50;;
27925;SDS011;15267;47.838;12.128;2022-09-20T14:40:50;4.68;;;1.70;;
27925;SDS011;15267;47.838;12.128;2022-09-20T14:43:27;5.07;;;2.00;;
27925;SDS011;15267;47.838;12.128;2022-09-20T14:45:55;4.32;;;1.70;;
27925;SDS011;15267;47.838;12.128;2022-09-20T14:53:33;4.82;;;1.80;;
27925;SDS011;15267;47.838;12.128;2022-09-20T14:58:31;6.45;;;2.00;;
27925;SDS011;15267;47.838;12.128;2022-09-20T15:03:46;8.23;;;2.95;;
27925;SDS011;15267;47.838;12.128;2022-09-20T15:06:11;5.30;;;2.15;;
27925;SDS011;15267;47.838;12.128;2022-09-20T15:08:38;4.65;;;1.85;;
27925;SDS011;15267;47.838;12.128;2022-09-20T15:11:04;7.30;;;2.10;;
27925;SDS011;15267;47.838;12.128;2022-09-20T15:13:30;4.72;;;2.13;;
27925;SDS011;15267;47.838;12.128;2022-09-20T15:15:56;7.03;;;2.22;;
27925;SDS011;15267;47.838;12.128;2022-09-20T15:20:50;4.63;;;2.03;;
27925;SDS011;15267;47.838;12.128;2022-09-20T15:23:16;9.07;;;2.88;;
27925;SDS011;15267;47.838;12.128;2022-09-20T15:25:42;6.85;;;2.72;;
27925;SDS011;15267;47.838;12.128;2022-09-20T15:28:12;7.45;;;3.60;;
27925;SDS011;15267;47.838;12.128;2022-09-20T15:30:45;5.75;;;2.47;;
27925;SDS011;15267;47.838;12.128;2022-09-20T15:33:11;6.63;;;3.00;;
27925;SDS011;15267;47.838;12.128;2022-09-20T15:35:41;6.50;;;2.60;;
27925;SDS011;15267;47.838;12.128;2022-09-20T15:38:08;4.07;;;2.38;;
27925;SDS011;15267;47.838;12.128;2022-09-20T15:40:42;8.05;;;2.13;;
27925;SDS011;15267;47.838;12.128;2022-09-20T15:43:08;6.30;;;2.75;;
27925;SDS011;15267;47.838;12.128;2022-09-20T15:45:40;5.50;;;2.40;;
27925;SDS011;15267;47.838;12.128;2022-09-20T15:48:14;3.35;;;1.80;;
27925;SDS011;15267;47.838;12.128;2022-09-20T15:50:39;6.32;;;2.15;;
27925;SDS011;15267;47.838;12.128;2022-09-20T15:53:07;5.95;;;2.10;;
27925;SDS011;15267;47.838;12.128;2022-09-20T15:55:37;5.00;;;2.10;;
27925;SDS011;15267;47.838;12.128;2022-09-20T15:58:03;6.80;;;2.22;;
27925;SDS011;15267;47.838;12.128;2022-09-20T16:00:29;8.02;;;2.10;;
27925;SDS011;15267;47.838;12.128;2022-09-20T16:02:55;4.80;;;1.98;;
27925;SDS011;15267;47.838;12.128;2022-09-20T16:05:21;3.92;;;1.90;;
27925;SDS011;15267;47.838;12.128;2022-09-20T16:07:47;7.20;;;2.92;;
27925;SDS011;15267;47.838;12.128;2022-09-20T16:10:13;6.00;;;2.80;;
27925;SDS011;15267;47.838;12.128;2022-09-20T16:12:39;14.18;;;8.55;;
27925;SDS011;15267;47.838;12.128;2022-09-20T16:15:05;9.25;;;4.80;;
27925;SDS011;15267;47.838;12.128;2022-09-20T16:17:32;11.07;;;6.05;;
27925;SDS011;15267;47.838;12.128;2022-09-20T16:20:16;10.95;;;5.32;;
27925;SDS011;15267;47.838;12.128;2022-09-20T16:22:42;19.15;;;10.77;;
27925;SDS011;15267;47.838;12.128;2022-09-20T16:25:08;19.42;;;12.25;;
27925;SDS011;15267;47.838;12.128;2022-09-20T16:27:34;7.72;;;4.03;;
27925;SDS011;15267;47.838;12.128;2022-09-20T16:30:00;8.88;;;3.70;;
27925;SDS011;15267;47.838;12.128;2022-09-20T16:32:27;8.60;;;4.10;;
27925;SDS011;15267;47.838;12.128;2022-09-20T16:34:53;7.43;;;4.18;;
27925;SDS011;15267;47.838;12.128;2022-09-20T16:37:19;6.88;;;2.80;;
27925;SDS011;15267;47.838;12.128;2022-09-20T16:39:46;9.45;;;3.50;;
27925;SDS011;15267;47.838;12.128;2022-09-20T16:42:12;8.57;;;3.30;;
27925;SDS011;15267;47.838;12.128;2022-09-20T16:44:39;7.88;;;3.45;;
27925;SDS011;15267;47.838;12.128;2022-09-20T16:47:08;4.78;;;3.13;;
27925;SDS011;15267;47.838;12.128;2022-09-20T16:49:35;22.15;;;11.50;;
27925;SDS011;15267;47.838;12.128;2022-09-20T16:52:04;27.15;;;14.38;;
27925;SDS011;15267;47.838;12.128;2022-09-20T16:54:30;14.45;;;6.45;;
27925;SDS011;15267;47.838;12.128;2022-09-20T16:56:57;7.05;;;3.65;;
27925;SDS011;15267;47.838;12.128;2022-09-20T16:59:24;11.18;;;3.50;;
27925;SDS011;15267;47.838;12.128;2022-09-20T17:01:50;7.10;;;3.53;;
27925;SDS011;15267;47.838;12.128;2022-09-20T17:04:16;6.38;;;3.30;;
27925;SDS011;15267;47.838;12.128;2022-09-20T17:06:44;9.52;;;5.80;;
27925;SDS011;15267;47.838;12.128;2022-09-20T17:09:10;8.20;;;4.93;;
27925;SDS011;15267;47.838;12.128;2022-09-20T17:11:38;11.30;;;5.68;;
27925;SDS011;15267;47.838;12.128;2022-09-20T17:14:05;12.75;;;5.55;;
27925;SDS011;15267;47.838;12.128;2022-09-20T17:16:32;10.10;;;6.22;;
27925;SDS011;15267;47.838;12.128;2022-09-20T17:18:59;10.07;;;7.30;;
27925;SDS011;15267;47.838;12.128;2022-09-20T17:21:27;11.48;;;7.00;;
27925;SDS011;15267;47.838;12.128;2022-09-20T17:23:54;12.30;;;7.32;;
27925;SDS011;15267;47.838;12.128;2022-09-20T17:26:30;9.07;;;4.68;;
27925;SDS011;15267;47.838;12.128;2022-09-20T17:29:00;10.13;;;5.13;;
27925;SDS011;15267;47.838;12.128;2022-09-20T17:31:30;11.30;;;7.97;;
27925;SDS011;15267;47.838;12.128;2022-09-20T17:33:58;11.63;;;7.05;;
27925;SDS011;15267;47.838;12.128;2022-09-20T17:36:25;8.55;;;5.68;;
27925;SDS011;15267;47.838;12.128;2022-09-20T17:38:52;12.43;;;5.38;;
27925;SDS011;15267;47.838;12.128;2022-09-20T17:41:19;12.27;;;7.50;;
27925;SDS011;15267;47.838;12.128;2022-09-20T17:43:46;11.85;;;8.02;;
27925;SDS011;15267;47.838;12.128;2022-09-20T17:46:15;15.98;;;7.25;;
27925;SDS011;15267;47.838;12.128;2022-09-20T17:48:46;11.77;;;6.47;;
27925;SDS011;15267;47.838;12.128;2022-09-20T17:51:13;12.05;;;5.70;;
27925;SDS011;15267;47.838;12.128;2022-09-20T17:53:39;10.93;;;5.40;;
27925;SDS011;15267;47.838;12.128;2022-09-20T17:56:05;7.05;;;4.30;;
27925;SDS011;15267;47.838;12.128;2022-09-20T17:58:35;11.05;;;3.97;;
27925;SDS011;15267;47.838;12.128;2022-09-20T18:01:05;6.10;;;3.30;;
27925;SDS011;15267;47.838;12.128;2022-09-20T18:03:36;4.72;;;2.53;;
27925;SDS011;15267;47.838;12.128;2022-09-20T18:06:11;4.28;;;2.30;;
27925;SDS011;15267;47.838;12.128;2022-09-20T18:08:38;5.78;;;2.67;;
27925;SDS011;15267;47.838;12.128;2022-09-20T18:11:04;6.90;;;2.70;;
27925;SDS011;15267;47.838;12.128;2022-09-20T18:13:30;5.68;;;2.55;;
27925;SDS011;15267;47.838;12.128;2022-09-20T18:15:56;6.38;;;2.70;;
27925;SDS011;15267;47.838;12.128;2022-09-20T18:18:23;9.70;;;2.60;;
27925;SDS011;15267;47.838;12.128;2022-09-20T18:20:48;6.53;;;2.70;;
27925;SDS011;15267;47.838;12.128;2022-09-20T18:23:14;6.00;;;3.15;;
27925;SDS011;15267;47.838;12.128;2022-09-20T18:25:41;5.78;;;3.28;;
27925;SDS011;15267;47.838;12.128;2022-09-20T18:28:27;5.50;;;3.08;;
27925;SDS011;15267;47.838;12.128;2022-09-20T18:31:03;6.05;;;3.10;;
27925;SDS011;15267;47.838;12.128;2022-09-20T18:33:30;6.03;;;2.85;;
27925;SDS011;15267;47.838;12.128;2022-09-20T18:36:02;7.18;;;3.58;;
27925;SDS011;15267;47.838;12.128;2022-09-20T18:38:29;7.28;;;3.35;;
27925;SDS011;15267;47.838;12.128;2022-09-20T18:40:57;7.47;;;2.90;;
27925;SDS011;15267;47.838;12.128;2022-09-20T18:43:28;7.25;;;2.90;;
27925;SDS011;15267;47.838;12.128;2022-09-20T18:45:55;4.85;;;2.92;;
27925;SDS011;15267;47.838;12.128;2022-09-20T18:48:23;13.57;;;6.90;;
27925;SDS011;15267;47.838;12.128;2022-09-20T18:51:00;14.93;;;8.32;;
27925;SDS011;15267;47.838;12.128;2022-09-20T18:53:27;12.60;;;5.78;;
27925;SDS011;15267;47.838;12.128;2022-09-20T18:55:53;11.95;;;5.65;;
27925;SDS011;15267;47.838;12.128;2022-09-20T18:58:20;12.27;;;5.80;;
27925;SDS011;15267;47.838;12.128;2022-09-20T19:00:47;8.95;;;5.38;;
27925;SDS011;15267;47.838;12.128;2022-09-20T19:03:18;10.80;;;5.05;;
27925;SDS011;15267;47.838;12.128;2022-09-20T19:05:50;10.13;;;5.88;;
27925;SDS011;15267;47.838;12.128;2022-09-20T19:08:30;19.08;;;11.55;;
27925;SDS011;15267;47.838;12.128;2022-09-20T19:11:00;26.50;;;18.27;;
27925;SDS011;15267;47.838;12.128;2022-09-20T19:13:34;25.67;;;16.90;;
27925;SDS011;15267;47.838;12.128;2022-09-20T19:26:27;6.50;;;4.03;;
27925;SDS011;15267;47.838;12.128;2022-09-20T19:28:54;8.30;;;4.05;;